Impacts TAF Board
For situational awareness. Not to be used for flight planning purposes.
IDs:

KMLC - McAlester Rgnl, OK, US

Issued at 1721 UTC 21 May 2022
Updated at 2153 UTC 21 May 2022
Potential Impact None Slight Moderate High
Time2053Z 21/22Z 21/23Z 22/00Z 22/01Z 22/02Z 22/03Z 22/04Z 22/05Z 22/06Z 22/07Z 22/08Z 22/09Z 22/10Z>>
Type OBS PRVL PRVL PRVL PRVL PRVL PRVL PRVL PRVL PRVL PRVL PRVL PRVL PRVL
VIS 9 >6 >6 >6 >6 >6 >6 >6 >6 >6 >6 >6 >6 >6
CIG 8 7 7 7 7 15 15 15 50 50 50 50 50 50
Cover OVC OVC OVC OVC OVC BKN BKN BKN BKN BKN BKN BKN BKN BKN
FltCat IFR IFR IFR IFR IFR MVFR MVFR MVFR VFR VFR VFR VFR VFR VFR
WX -RA VCSH VCSH VCSH VCSH -- -- -- -- -- -- -- -- --
WDir 360 360 360 360 360 360 360 360 20 20 20 20 20 20
WSpd 12 12 12 12 12 10 10 10 8 8 8 8 8 8
WGst 20 -- -- -- -- -- -- -- -- -- -- -- -- --
WSHgt -- -- -- -- -- -- -- -- -- -- -- -- -- --
WSDir -- -- -- -- -- -- -- -- -- -- -- -- -- --
WSSpd -- -- -- -- -- -- -- -- -- -- -- -- -- --
R02/20
XWnd 4 4 4 4 4 3 3 3 0 0 0 0 0 0
XGst 7 -- -- -- -- -- -- -- -- -- -- -- -- --
HWnd 11 11 11 11 11 9 9 9 8 8 8 8 8 8
HGst 19 -- -- -- -- -- -- -- -- -- -- -- -- --
Raw TAF
KMLC 211721Z 2118/2218 36012KT P6SM VCSH OVC007
  TEMPO 2118/2122 3SM -SHRA BR OVC005
  FM220200 36010KT P6SM BKN015
  FM220500 02008KT P6SM BKN050


Raw METAR
KMLC 212053Z AUTO 36012G20KT 9SM -RA OVC008 15/13 A3002 RMK AO2 SLP158 P0000 60000 T01500133 51018
KMLC 211953Z AUTO 01013G19KT 10SM -RA OVC006 16/14 A3001 RMK AO2 SLP154 P0000 T01560139
KMLC 211911Z AUTO 01013G19KT 10SM -RA OVC006 16/14 A2999 RMK AO2 P0000 T01610139
KMLC 211853Z AUTO 36013KT 8SM -RA OVC005 16/14 A2998 RMK AO2 SLP144 P0000 T01610144
KMLC 211831Z AUTO 35011KT 5SM -RA BR OVC005 17/16 A2997 RMK AO2 P0000 T01670156

METAR Board
Radar Display
Forecast Discussion
For situational awareness. Not to be used for flight planning purposes.